Latest Weather Observations for Williamtown

IDN60901

Issued at 5:01 pm EST Thursday 27 July 2017 (issued every 10 minutes, with the page automatically refreshed every 10 minutes)

About weather observations | Map of Sydney area stations | Latest observations for Sydney area | Other Formats
Station Details ID: 061078 Name: WILLIAMTOWN RAAF Lat: -32.79 Lon: 151.84 Height: 7.5 m
Data from the previous 72 hours. | See also: Recent months at Williamtown
Date/Time
EST
Temp
°C
App
Temp
°C
Dew
Point
°C
Rel
Hum
%
Delta-T
°C
Wind Press
QNH
hPa
Press
MSL
hPa
Rain since
9am
mm
Dir  Spd
km/h
Gust
km/h
Spd
kts
Gust
kts
27/04:30pm 15.8 13.1 8.8 63 3.6 SE 13 15 7 8 1022.4 1022.4 0.0
27/04:00pm 16.3 13.1 8.3 59 4.0 SE 15 20 8 11 1022.3 1022.3 0.0
27/03:30pm 16.6 13.4 8.3 58 4.2 SE 15 19 8 10 1022.6 1022.6 0.0
27/03:00pm 16.9 14.0 8.3 57 4.4 SE 13 17 7 9 1022.8 1022.8 0.0
27/02:30pm 17.1 13.8 8.0 55 4.6 SE 15 20 8 11 1022.9 1022.9 0.0
27/02:00pm 16.3 13.1 7.0 54 4.6 SSE 13 19 7 10 1022.9 1022.9 0.0
27/01:30pm 17.7 14.3 7.7 52 5.1 SSE 15 19 8 10 1022.8 1022.8 0.0
27/01:00pm 17.0 13.5 7.1 52 4.9 SE 15 22 8 12 1023.0 1023.0 0.0
27/12:30pm 17.6 14.8 7.1 50 5.2 SSW 11 15 6 8 1023.3 1023.3 0.0
27/12:00pm 16.7 13.9 6.8 52 4.9 SW 11 17 6 9 1023.9 1023.9 0.0
27/11:30am 16.5 13.4 5.5 48 5.3 W 11 17 6 9 1024.5 1024.5 0.0
27/11:00am 15.9 12.3 4.9 48 5.2 WNW 13 17 7 9 1025.0 1025.0 0.0
27/10:30am 15.1 11.4 4.5 49 4.9 WNW 13 22 7 12 1025.3 1025.3 0.0
27/10:00am 14.4 10.0 4.7 52 4.5 NW 17 20 9 11 1025.6 1025.6 0.0
27/09:30am 13.2 8.7 4.1 54 4.1 WNW 17 19 9 10 1025.5 1025.5 0.0
27/09:00am 12.5 8.0 4.2 57 3.7 WNW 17 20 9 11 1025.2 1025.2 0.0
27/08:30am 11.7 7.7 4.7 62 3.2 NW 15 20 8 11 1025.0 1025.0 0.0
27/08:00am 9.8 5.7 4.4 69 2.4 NW 15 17 8 9 1024.7 1024.7 0.0
27/07:30am 8.0 4.9 3.7 74 1.8 NW 9 13 5 7 1024.5 1024.5 0.0
27/07:00am 7.2 3.3 3.3 76 1.6 NW 13 15 7 8 1024.4 1024.4 0.0
27/06:30am 6.8 2.5 3.2 78 1.5 WNW 15 19 8 10 1024.1 1024.1 0.0
27/06:00am 7.0 2.3 3.3 77 1.6 WNW 17 19 9 10 1023.6 1023.6 0.0
27/05:30am 7.1 2.8 3.3 77 1.6 WNW 15 15 8 8 1023.4 1023.4 0.0
27/05:00am 7.7 3.8 3.2 73 1.9 NW 13 15 7 8 1023.1 1023.1 0.0
27/04:30am 7.7 4.1 3.2 73 1.9 WNW 11 13 6 7 1023.2 1023.2 0.0
27/04:00am 7.7 3.4 3.0 72 2.0 NW 15 17 8 9 1023.0 1023.0 0.0
27/03:30am 8.2 3.5 3.3 71 2.1 NW 17 17 9 9 1022.9 1022.9 0.0
27/03:00am 8.6 5.4 3.0 68 2.4 NW 9 13 5 7 1022.9 1022.9 0.0
27/02:30am 8.4 4.1 3.5 71 2.1 WNW 15 17 8 9 1022.5 1022.5 0.0
27/02:00am 9.4 6.2 3.2 65 2.7 NW 9 11 5 6 1022.4 1022.4 0.0
27/01:30am 8.6 4.6 2.8 67 2.5 W 13 15 7 8 1022.3 1022.3 0.0
27/01:00am 9.2 5.3 3.2 66 2.6 WNW 13 15 7 8 1022.2 1022.2 0.0
27/12:30am 10.6 6.9 2.4 57 3.5 W 11 11 6 6 1022.2 1022.2 0.0
27/12:00am 11.9 8.2 2.4 52 4.1 W 11 13 6 7 1022.0 1022.0 0.0
 
Date/Time
EST
Temp
°C
App
Temp
°C
Dew
Point
°C
Rel
Hum
%
Delta-T
°C
Wind Press
QNH
hPa
Press
MSL
hPa
Rain since
9am
mm
Dir  Spd
km/h
Gust
km/h
Spd
kts
Gust
kts
26/11:30pm 12.5 8.4 2.4 50 4.4 WSW 13 17 7 9 1021.8 1021.8 0.0
26/11:00pm 12.9 7.7 2.2 48 4.6 W 19 28 10 15 1021.4 1021.4 0.0
26/10:30pm 12.8 8.2 1.8 47 4.7 W 15 19 8 10 1021.1 1021.1 0.0
26/10:00pm 12.3 7.7 1.6 48 4.5 WSW 15 20 8 11 1020.7 1020.7 0.0
26/09:30pm 12.7 7.8 2.0 48 4.6 WSW 17 20 9 11 1020.5 1020.5 0.0
26/09:00pm 11.8 8.1 2.3 52 4.1 WSW 11 13 6 7 1020.2 1020.2 0.0
26/08:30pm 12.0 8.3 2.2 51 4.2 SW 11 11 6 6 1019.7 1019.7 0.0
26/08:00pm 13.7 9.9 1.7 44 5.2 W 11 15 6 8 1019.3 1019.3 0.0
26/07:30pm 14.5 9.9 1.8 42 5.5 W 15 19 8 10 1019.0 1019.0 0.0
26/07:00pm 15.3 10.4 2.1 41 5.8 W 17 22 9 12 1018.6 1018.6 0.0
26/06:30pm 14.4 9.9 2.0 43 5.4 WSW 15 17 8 9 1018.2 1018.2 0.0
26/06:00pm 16.3 12.0 0.8 35 6.7 W 13 15 7 8 1017.4 1017.4 0.0
26/05:30pm 17.7 14.1 0.8 32 7.4 WSW 9 13 5 7 1016.9 1016.9 0.0
26/05:00pm 19.1 14.4 0.7 29 8.2 WSW 15 19 8 10 1016.6 1016.6 0.0
26/04:30pm 21.2 14.8 1.0 26 9.2 WSW 24 33 13 18 1015.7 1015.7 0.0
26/04:00pm 22.2 15.9 1.8 26 9.5 WSW 24 44 13 24 1015.4 1015.4 0.0
26/03:30pm 22.4 15.0 2.0 26 9.6 W 30 44 16 24 1014.7 1014.7 0.0
26/03:13pm 22.6 15.6 2.1 26 9.6 WSW 28 46 15 25 1014.7 1014.7 0.0
26/03:00pm 22.6 15.8 3.2 28 9.3 W 28 39 15 21 1014.7 1014.7 0.0
26/02:30pm 23.2 16.1 3.7 28 9.5 WNW 30 43 16 23 1014.8 1014.8 0.0
26/02:00pm 22.9 15.4 3.4 28 9.4 WNW 32 46 17 25 1014.4 1014.4 0.0
26/01:30pm 22.2 14.1 3.3 29 9.1 WNW 35 46 19 25 1014.2 1014.2 0.0
26/01:00pm 23.2 13.7 3.7 28 9.5 WNW 43 63 23 34 1014.3 1014.3 0.0
26/12:39pm 22.9 13.6 2.9 27 9.6 WNW 41 59 22 32 1014.5 1014.5 0.0
26/12:30pm 22.8 13.6 3.4 28 9.4 WNW 41 56 22 30 1014.6 1014.6 0.0
26/12:00pm 21.8 13.2 2.5 28 9.1 WNW 37 59 20 32 1015.1 1015.1 0.0
26/11:30am 21.3 12.3 2.6 29 8.8 WNW 39 52 21 28 1015.8 1015.8 0.0
26/11:00am 21.0 12.1 2.8 30 8.6 WNW 39 52 21 28 1016.4 1016.4 0.0
26/10:30am 20.0 10.5 1.9 30 8.3 WNW 41 57 22 31 1016.5 1016.5 0.0
26/10:00am 19.5 9.6 1.9 31 8.0 WNW 43 59 23 32 1016.8 1016.8 0.0
26/09:30am 18.9 9.8 1.9 32 7.7 WNW 39 52 21 28 1017.1 1017.1 0.0
26/09:00am 18.1 8.3 2.0 34 7.3 NW 43 61 23 33 1016.8 1016.8 0.0
26/08:57am 18.1 9.0 2.0 34 7.3 NW 39 61 21 33 1016.9 1016.9 0.0
26/08:30am 16.2 9.1 3.3 42 5.9 WNW 30 37 16 20 1017.4 1017.4 0.0
26/08:00am 14.4 6.9 3.2 47 5.0 WNW 32 37 17 20 1017.6 1017.6 0.0
26/07:30am 13.2 5.6 3.0 50 4.5 WNW 32 41 17 22 1017.1 1017.1 0.0
26/07:00am 11.0 5.0 3.3 59 3.4 WNW 24 28 13 15 1017.1 1017.1 0.0
26/06:30am 11.4 6.2 3.4 58 3.5 W 20 30 11 16 1017.5 1017.5 0.0
26/06:00am 10.0 6.2 3.7 65 2.8 WSW 13 19 7 10 1017.3 1017.3 0.0
26/05:30am 11.7 6.6 4.0 59 3.4 WNW 20 28 11 15 1016.5 1016.5 0.0
26/05:00am 11.6 5.4 4.1 60 3.4 WNW 26 32 14 17 1016.5 1016.5 0.0
26/04:30am 11.0 4.8 4.5 64 2.9 WNW 26 30 14 16 1016.9 1016.9 0.0
26/04:00am 11.1 6.4 5.0 66 2.8 WNW 19 28 10 15 1017.2 1017.2 0.0
26/03:30am 9.7 7.6 3.9 67 2.5 NW 4 9 2 5 1017.7 1017.7 0.0
26/03:00am 10.8 7.9 4.5 65 2.8 NW 9 11 5 6 1017.8 1017.8 0.0
26/02:30am 10.9 7.7 5.0 67 2.7 NW 11 13 6 7 1018.1 1018.1 0.0
26/02:00am 11.3 7.4 5.4 67 2.7 WNW 15 24 8 13 1018.3 1018.3 0.0
26/01:30am 10.5 6.5 4.9 68 2.5 NW 15 19 8 10 1018.4 1018.4 0.0
26/01:00am 10.2 6.9 4.6 68 2.5 NW 11 13 6 7 1018.6 1018.6 0.0
26/12:30am 10.8 7.2 4.9 67 2.7 NW 13 15 7 8 1018.7 1018.7 0.0
26/12:00am 9.4 5.8 4.8 73 2.0 NW 13 15 7 8 1018.9 1018.9 0.0
 
Date/Time
EST
Temp
°C
App
Temp
°C
Dew
Point
°C
Rel
Hum
%
Delta-T
°C
Wind Press
QNH
hPa
Press
MSL
hPa
Rain since
9am
mm
Dir  Spd
km/h
Gust
km/h
Spd
kts
Gust
kts
25/11:30pm 7.3 3.7 5.1 86 1.0 NW 13 15 7 8 1019.1 1019.1 0.0
25/11:00pm 6.8 4.9 5.1 89 0.7 WSW 4 7 2 4 1019.3 1019.3 0.0
25/10:30pm 6.7 5.5 4.5 86 1.0 CALM 0 0 0 0 1019.3 1019.3 0.0
25/10:00pm 8.2 7.3 6.0 86 1.0 CALM 0 0 0 0 1019.2 1019.2 0.0
25/09:30pm 7.8 5.6 5.4 85 1.1 NW 6 7 3 4 1019.3 1019.3 0.0
25/09:00pm 8.7 7.8 6.0 83 1.2 CALM 0 0 0 0 1019.5 1019.5 0.0
25/08:30pm 9.0 8.0 5.7 80 1.5 CALM 0 0 0 0 1019.6 1019.6 0.0
25/08:00pm 10.2 7.9 5.8 74 2.0 N 7 11 4 6 1019.6 1019.6 0.0
25/07:30pm 11.1 8.4 5.8 70 2.5 NNW 9 11 5 6 1019.5 1019.5 0.0
25/07:00pm 11.9 9.1 6.8 71 2.4 N 11 13 6 7 1019.5 1019.5 0.0
25/06:30pm 10.9 8.8 6.6 75 2.0 N 7 9 4 5 1019.4 1019.4 0.0
25/06:00pm 12.2 10.6 6.5 68 2.7 NNW 4 7 2 4 1019.4 1019.4 0.0
25/05:30pm 14.3 12.0 7.4 63 3.4 N 9 11 5 6 1019.2 1019.2 0.0
25/05:00pm 15.9 13.0 6.6 54 4.5 N 11 13 6 7 1019.2 1019.2 0.0
25/04:30pm 18.0 15.3 5.6 44 6.0 N 9 11 5 6 1019.3 1019.3 0.0
25/04:00pm 18.7 15.1 4.8 40 6.7 NNW 13 19 7 10 1019.4 1019.4 0.0
25/03:30pm 19.1 15.0 4.5 38 7.0 NNW 15 24 8 13 1019.7 1019.7 0.0
25/03:00pm 19.1 14.0 4.1 37 7.1 NW 20 28 11 15 1019.9 1019.9 0.0
25/02:30pm 18.5 13.6 4.3 39 6.8 WNW 19 24 10 13 1020.1 1020.1 0.0
25/02:00pm 18.3 13.1 3.4 37 6.9 WNW 20 30 11 16 1020.5 1020.5 0.0
25/01:30pm 18.6 14.1 4.4 39 6.8 W 17 28 9 15 1020.8 1020.8 0.0
25/01:00pm 18.3 13.3 4.8 41 6.5 NW 20 30 11 16 1021.2 1021.2 0.0
25/12:30pm 18.0 12.9 4.2 40 6.5 WNW 20 30 11 16 1021.6 1021.6 0.0
25/12:00pm 17.3 11.9 4.6 43 6.0 WNW 22 30 12 16 1022.2 1022.2 0.0
25/11:30am 17.0 11.8 5.3 46 5.6 W 22 32 12 17 1022.9 1022.9 0.0
25/11:00am 16.3 11.4 5.0 47 5.3 W 20 28 11 15 1023.5 1023.5 0.0
25/10:30am 15.1 9.9 5.3 52 4.6 WNW 22 30 12 16 1023.8 1023.8 0.0
25/10:00am 14.1 8.9 5.5 56 4.0 WNW 22 28 12 15 1024.1 1024.1 0.0
25/09:30am 12.3 6.6 5.0 61 3.4 WNW 24 33 13 18 1024.2 1024.2 0.0
25/09:00am 10.3 5.8 4.2 66 2.7 WNW 17 22 9 12 1024.1 1024.1 0.0
25/08:30am 9.0 4.8 4.0 71 2.2 WNW 15 19 8 10 1023.9 1023.9 0.0
25/08:00am 8.0 3.8 4.0 76 1.7 WNW 15 17 8 9 1023.7 1023.7 0.0
25/07:30am 6.3 2.4 3.6 83 1.1 WNW 13 13 7 7 1023.4 1023.4 0.0
25/07:00am 5.0 1.0 2.9 86 0.9 NW 13 15 7 8 1023.2 1023.2 0.0
25/06:30am 5.4 1.4 2.8 83 1.1 NW 13 15 7 8 1023.0 1023.0 0.0
25/06:00am 5.5 1.5 2.8 83 1.1 WNW 13 13 7 7 1022.7 1022.7 0.0
25/05:30am 6.1 2.1 3.1 81 1.2 NW 13 13 7 7 1022.3 1022.3 0.0
25/05:00am 6.9 2.2 3.2 77 1.5 WNW 17 19 9 10 1022.2 1022.2 0.0
25/04:30am 6.8 2.9 3.2 78 1.5 WNW 13 15 7 8 1022.1 1022.1 0.0
25/04:00am 5.9 2.3 2.9 81 1.2 WNW 11 15 6 8 1022.1 1022.1 0.0
25/03:30am 5.4 1.8 3.1 85 0.9 WNW 11 13 6 7 1022.0 1022.0 0.0
25/03:00am 4.4 0.7 2.4 87 0.8 WNW 11 13 6 7 1021.8 1021.8 0.0
25/02:30am 5.1 3.6 3.0 86 0.9 CALM 0 6 0 3 1021.8 1021.8 0.0
25/02:00am 4.8 1.6 2.8 87 0.8 NW 9 11 5 6 1021.9 1021.9 0.0
25/01:30am 4.9 1.7 2.8 86 0.9 NW 9 11 5 6 1021.8 1021.8 0.0
25/01:00am 6.1 4.8 4.1 87 0.8 CALM 0 0 0 0 1021.6 1021.6 0.0
25/12:30am 6.8 5.2 4.3 84 1.1 NNW 2 7 1 4 1021.5 1021.5 0.0
25/12:00am 7.9 4.9 4.3 78 1.6 NW 9 11 5 6 1021.6 1021.6 0.0
 
Date/Time
EST
Temp
°C
App
Temp
°C
Dew
Point
°C
Rel
Hum
%
Delta-T
°C
Wind Press
QNH
hPa
Press
MSL
hPa
Rain since
9am
mm
Dir  Spd
km/h
Gust
km/h
Spd
kts
Gust
kts
24/11:30pm 7.5 4.9 4.3 80 1.4 NNW 7 9 4 5 1021.7 1021.7 0.0
24/11:00pm 7.1 4.5 3.3 77 1.6 NW 6 9 3 5 1021.6 1021.6 0.0
24/10:30pm 8.4 6.1 5.0 79 1.5 NW 6 9 3 5 1021.6 1021.6 0.0
24/10:00pm 9.4 6.5 4.4 71 2.2 NW 9 11 5 6 1021.3 1021.3 0.0
24/09:30pm 9.4 7.0 4.4 71 2.2 WNW 6 7 3 4 1021.1 1021.1 0.0
24/09:00pm 9.4 6.8 4.2 70 2.3 WNW 7 9 4 5 1020.9 1020.9 0.0
24/08:30pm 12.3 8.2 4.5 59 3.5 NNW 15 17 8 9 1020.6 1020.6 0.0
24/08:00pm 10.6 7.8 3.4 61 3.1 WSW 7 9 4 5 1020.5 1020.5 0.0
24/07:30pm 11.2 9.8 5.7 69 2.5 WSW 2 7 1 4 1020.4 1020.4 0.0
24/07:00pm 12.2 9.7 4.9 61 3.3 WNW 7 13 4 7 1020.1 1020.1 0.0
24/06:30pm 13.1 10.4 5.5 60 3.6 NNW 9 11 5 6 1019.8 1019.8 0.0
24/06:00pm 14.9 11.6 4.6 50 4.8 WNW 11 15 6 8 1019.4 1019.4 0.0
24/05:30pm 15.2 14.1 4.9 50 4.8 CALM 0 0 0 0 1019.0 1019.0 0.0

Latest Capital City Observations: Canberra | Sydney | Melbourne | Brisbane | Adelaide | Perth | Hobart | Darwin

Other Formats:

Comma delimited format used in spreadsheet applications
http://www.bom.gov.au/fwo/IDN60901/IDN60901.94776.axf

JavaScript Object Notation format (JSON) in row-major order
http://www.bom.gov.au/fwo/IDN60901/IDN60901.94776.json